sensor_id;sensor_type;location;lat;lon;timestamp;P1;durP1;ratioP1;P2;durP2;ratioP2
77591;SDS011;66891;46.884;17.436;2023-02-28T00:00:17;21.00;;;6.25;;
77591;SDS011;66891;46.884;17.436;2023-02-28T00:02:44;16.13;;;6.32;;
77591;SDS011;66891;46.884;17.436;2023-02-28T00:05:12;17.63;;;6.45;;
77591;SDS011;66891;46.884;17.436;2023-02-28T00:07:41;17.67;;;6.25;;
77591;SDS011;66891;46.884;17.436;2023-02-28T00:10:10;16.55;;;6.30;;
77591;SDS011;66891;46.884;17.436;2023-02-28T00:12:37;21.40;;;7.75;;
77591;SDS011;66891;46.884;17.436;2023-02-28T00:15:05;17.90;;;7.03;;
77591;SDS011;66891;46.884;17.436;2023-02-28T00:17:32;16.70;;;6.47;;
77591;SDS011;66891;46.884;17.436;2023-02-28T00:20:00;19.77;;;7.43;;
77591;SDS011;66891;46.884;17.436;2023-02-28T00:22:38;17.60;;;6.93;;
77591;SDS011;66891;46.884;17.436;2023-02-28T00:25:08;15.93;;;6.55;;
77591;SDS011;66891;46.884;17.436;2023-02-28T00:27:36;17.75;;;7.03;;
77591;SDS011;66891;46.884;17.436;2023-02-28T00:30:03;17.10;;;7.45;;
77591;SDS011;66891;46.884;17.436;2023-02-28T00:32:32;18.52;;;7.72;;
77591;SDS011;66891;46.884;17.436;2023-02-28T00:34:59;18.80;;;7.50;;
77591;SDS011;66891;46.884;17.436;2023-02-28T00:37:27;19.60;;;7.88;;
77591;SDS011;66891;46.884;17.436;2023-02-28T00:39:54;19.00;;;8.00;;
77591;SDS011;66891;46.884;17.436;2023-02-28T00:42:22;23.83;;;9.00;;
77591;SDS011;66891;46.884;17.436;2023-02-28T00:44:50;19.17;;;7.85;;
77591;SDS011;66891;46.884;17.436;2023-02-28T00:47:17;21.80;;;8.18;;
77591;SDS011;66891;46.884;17.436;2023-02-28T00:49:44;21.75;;;8.38;;
77591;SDS011;66891;46.884;17.436;2023-02-28T00:52:11;19.27;;;7.77;;
77591;SDS011;66891;46.884;17.436;2023-02-28T00:54:38;22.13;;;7.50;;
77591;SDS011;66891;46.884;17.436;2023-02-28T00:57:05;17.23;;;6.82;;
77591;SDS011;66891;46.884;17.436;2023-02-28T00:59:35;16.23;;;6.20;;
77591;SDS011;66891;46.884;17.436;2023-02-28T01:02:02;16.95;;;6.57;;
77591;SDS011;66891;46.884;17.436;2023-02-28T01:04:30;20.80;;;7.50;;
77591;SDS011;66891;46.884;17.436;2023-02-28T01:06:57;17.02;;;6.53;;
77591;SDS011;66891;46.884;17.436;2023-02-28T01:09:23;18.92;;;6.68;;
77591;SDS011;66891;46.884;17.436;2023-02-28T01:11:50;16.45;;;6.30;;
77591;SDS011;66891;46.884;17.436;2023-02-28T01:14:17;17.45;;;6.00;;
77591;SDS011;66891;46.884;17.436;2023-02-28T01:16:46;15.93;;;6.25;;
77591;SDS011;66891;46.884;17.436;2023-02-28T01:19:13;16.25;;;6.63;;
77591;SDS011;66891;46.884;17.436;2023-02-28T01:21:40;17.52;;;6.70;;
77591;SDS011;66891;46.884;17.436;2023-02-28T01:24:07;20.08;;;6.43;;
77591;SDS011;66891;46.884;17.436;2023-02-28T01:26:35;15.40;;;6.07;;
77591;SDS011;66891;46.884;17.436;2023-02-28T01:29:02;14.83;;;5.70;;
77591;SDS011;66891;46.884;17.436;2023-02-28T01:31:30;18.75;;;6.13;;
77591;SDS011;66891;46.884;17.436;2023-02-28T01:33:59;15.40;;;6.32;;
77591;SDS011;66891;46.884;17.436;2023-02-28T01:36:26;15.70;;;5.40;;
77591;SDS011;66891;46.884;17.436;2023-02-28T01:38:53;14.05;;;5.43;;
77591;SDS011;66891;46.884;17.436;2023-02-28T01:41:21;17.10;;;6.18;;
77591;SDS011;66891;46.884;17.436;2023-02-28T01:43:52;15.63;;;6.32;;
77591;SDS011;66891;46.884;17.436;2023-02-28T01:46:19;15.95;;;6.25;;
77591;SDS011;66891;46.884;17.436;2023-02-28T01:48:49;19.13;;;6.85;;
77591;SDS011;66891;46.884;17.436;2023-02-28T01:51:19;19.27;;;6.55;;
77591;SDS011;66891;46.884;17.436;2023-02-28T01:53:49;17.63;;;6.82;;
77591;SDS011;66891;46.884;17.436;2023-02-28T01:56:18;16.88;;;6.60;;
77591;SDS011;66891;46.884;17.436;2023-02-28T01:58:47;19.70;;;7.65;;
77591;SDS011;66891;46.884;17.436;2023-02-28T02:01:15;18.15;;;6.95;;
77591;SDS011;66891;46.884;17.436;2023-02-28T02:03:48;16.88;;;7.10;;
77591;SDS011;66891;46.884;17.436;2023-02-28T02:06:20;19.15;;;7.25;;
77591;SDS011;66891;46.884;17.436;2023-02-28T02:08:47;19.08;;;7.00;;
77591;SDS011;66891;46.884;17.436;2023-02-28T02:11:14;17.77;;;6.68;;
77591;SDS011;66891;46.884;17.436;2023-02-28T02:16:37;17.40;;;6.82;;
77591;SDS011;66891;46.884;17.436;2023-02-28T02:19:15;20.58;;;7.43;;
77591;SDS011;66891;46.884;17.436;2023-02-28T02:27:22;17.35;;;6.57;;
77591;SDS011;66891;46.884;17.436;2023-02-28T02:32:47;16.30;;;6.18;;
77591;SDS011;66891;46.884;17.436;2023-02-28T02:35:17;18.38;;;6.88;;
77591;SDS011;66891;46.884;17.436;2023-02-28T02:37:50;16.27;;;6.00;;
77591;SDS011;66891;46.884;17.436;2023-02-28T02:40:18;17.60;;;6.65;;
77591;SDS011;66891;46.884;17.436;2023-02-28T02:42:50;16.67;;;5.90;;
77591;SDS011;66891;46.884;17.436;2023-02-28T02:45:19;18.05;;;6.07;;
77591;SDS011;66891;46.884;17.436;2023-02-28T02:47:48;13.40;;;5.53;;
77591;SDS011;66891;46.884;17.436;2023-02-28T02:50:19;16.63;;;6.22;;
77591;SDS011;66891;46.884;17.436;2023-02-28T02:52:48;13.27;;;4.72;;
77591;SDS011;66891;46.884;17.436;2023-02-28T02:55:15;15.85;;;4.82;;
77591;SDS011;66891;46.884;17.436;2023-02-28T02:57:45;15.05;;;5.20;;
77591;SDS011;66891;46.884;17.436;2023-02-28T03:00:14;16.88;;;5.20;;
77591;SDS011;66891;46.884;17.436;2023-02-28T03:02:42;14.88;;;5.13;;
77591;SDS011;66891;46.884;17.436;2023-02-28T03:05:12;12.95;;;4.32;;
77591;SDS011;66891;46.884;17.436;2023-02-28T03:07:42;13.00;;;4.70;;
77591;SDS011;66891;46.884;17.436;2023-02-28T03:10:26;12.65;;;4.65;;
77591;SDS011;66891;46.884;17.436;2023-02-28T03:13:05;15.68;;;4.60;;
77591;SDS011;66891;46.884;17.436;2023-02-28T03:15:37;12.43;;;3.92;;
77591;SDS011;66891;46.884;17.436;2023-02-28T03:18:10;13.75;;;4.60;;
77591;SDS011;66891;46.884;17.436;2023-02-28T03:20:45;14.02;;;4.65;;
77591;SDS011;66891;46.884;17.436;2023-02-28T03:23:17;14.18;;;4.43;;
77591;SDS011;66891;46.884;17.436;2023-02-28T03:25:48;12.15;;;4.45;;
77591;SDS011;66891;46.884;17.436;2023-02-28T03:28:19;12.20;;;4.13;;
77591;SDS011;66891;46.884;17.436;2023-02-28T03:30:49;15.85;;;4.90;;
77591;SDS011;66891;46.884;17.436;2023-02-28T03:33:21;12.27;;;4.53;;
77591;SDS011;66891;46.884;17.436;2023-02-28T03:35:51;12.43;;;4.30;;
77591;SDS011;66891;46.884;17.436;2023-02-28T03:38:22;14.60;;;4.30;;
77591;SDS011;66891;46.884;17.436;2023-02-28T03:40:54;13.65;;;4.68;;
77591;SDS011;66891;46.884;17.436;2023-02-28T03:43:25;14.10;;;4.05;;
77591;SDS011;66891;46.884;17.436;2023-02-28T03:45:54;12.07;;;4.40;;
77591;SDS011;66891;46.884;17.436;2023-02-28T03:48:23;14.00;;;4.15;;
77591;SDS011;66891;46.884;17.436;2023-02-28T03:50:53;12.07;;;4.13;;
77591;SDS011;66891;46.884;17.436;2023-02-28T03:53:25;12.80;;;4.32;;
77591;SDS011;66891;46.884;17.436;2023-02-28T03:55:53;12.50;;;4.18;;
77591;SDS011;66891;46.884;17.436;2023-02-28T03:58:22;13.05;;;4.45;;
77591;SDS011;66891;46.884;17.436;2023-02-28T04:00:52;11.70;;;3.70;;
77591;SDS011;66891;46.884;17.436;2023-02-28T04:03:22;12.27;;;4.15;;
77591;SDS011;66891;46.884;17.436;2023-02-28T04:05:50;13.35;;;4.03;;
77591;SDS011;66891;46.884;17.436;2023-02-28T04:08:17;14.88;;;4.68;;
77591;SDS011;66891;46.884;17.436;2023-02-28T04:10:47;14.60;;;4.53;;
77591;SDS011;66891;46.884;17.436;2023-02-28T04:13:17;11.57;;;4.20;;
77591;SDS011;66891;46.884;17.436;2023-02-28T04:15:44;12.68;;;3.72;;
77591;SDS011;66891;46.884;17.436;2023-02-28T04:18:11;12.95;;;4.63;;
77591;SDS011;66891;46.884;17.436;2023-02-28T04:20:38;11.30;;;3.92;;
77591;SDS011;66891;46.884;17.436;2023-02-28T04:23:05;14.75;;;4.88;;
77591;SDS011;66891;46.884;17.436;2023-02-28T04:25:32;14.60;;;4.88;;
77591;SDS011;66891;46.884;17.436;2023-02-28T04:28:00;13.25;;;3.88;;
77591;SDS011;66891;46.884;17.436;2023-02-28T04:30:27;12.30;;;4.30;;
77591;SDS011;66891;46.884;17.436;2023-02-28T04:32:56;15.38;;;4.93;;
77591;SDS011;66891;46.884;17.436;2023-02-28T04:35:23;13.00;;;4.30;;
77591;SDS011;66891;46.884;17.436;2023-02-28T04:37:50;14.13;;;4.43;;
77591;SDS011;66891;46.884;17.436;2023-02-28T04:40:17;14.40;;;4.70;;
77591;SDS011;66891;46.884;17.436;2023-02-28T04:42:44;13.85;;;4.30;;
77591;SDS011;66891;46.884;17.436;2023-02-28T04:45:13;12.80;;;4.05;;
77591;SDS011;66891;46.884;17.436;2023-02-28T04:47:40;11.32;;;3.65;;
77591;SDS011;66891;46.884;17.436;2023-02-28T04:50:15;13.20;;;4.82;;
77591;SDS011;66891;46.884;17.436;2023-02-28T04:52:42;14.40;;;4.53;;
77591;SDS011;66891;46.884;17.436;2023-02-28T04:55:09;12.50;;;3.83;;
77591;SDS011;66891;46.884;17.436;2023-02-28T04:57:36;12.98;;;4.13;;
77591;SDS011;66891;46.884;17.436;2023-02-28T05:00:05;12.52;;;4.28;;
77591;SDS011;66891;46.884;17.436;2023-02-28T05:02:35;12.25;;;3.90;;
77591;SDS011;66891;46.884;17.436;2023-02-28T05:05:02;14.02;;;4.05;;
77591;SDS011;66891;46.884;17.436;2023-02-28T05:07:29;11.50;;;4.00;;
77591;SDS011;66891;46.884;17.436;2023-02-28T05:09:56;11.23;;;4.18;;
77591;SDS011;66891;46.884;17.436;2023-02-28T05:12:23;12.93;;;4.00;;
77591;SDS011;66891;46.884;17.436;2023-02-28T05:14:50;12.40;;;4.35;;
77591;SDS011;66891;46.884;17.436;2023-02-28T05:17:17;13.97;;;4.30;;
77591;SDS011;66891;46.884;17.436;2023-02-28T05:19:46;12.95;;;4.00;;
77591;SDS011;66891;46.884;17.436;2023-02-28T05:22:13;10.60;;;3.55;;
77591;SDS011;66891;46.884;17.436;2023-02-28T05:24:42;11.60;;;3.70;;
77591;SDS011;66891;46.884;17.436;2023-02-28T05:27:09;12.25;;;4.00;;
77591;SDS011;66891;46.884;17.436;2023-02-28T05:29:36;12.88;;;3.65;;
77591;SDS011;66891;46.884;17.436;2023-02-28T05:32:09;11.73;;;4.32;;
77591;SDS011;66891;46.884;17.436;2023-02-28T05:34:36;11.30;;;3.97;;
77591;SDS011;66891;46.884;17.436;2023-02-28T05:37:05;11.63;;;3.40;;
77591;SDS011;66891;46.884;17.436;2023-02-28T05:39:32;13.63;;;3.70;;
77591;SDS011;66891;46.884;17.436;2023-02-28T05:41:59;10.40;;;3.40;;
77591;SDS011;66891;46.884;17.436;2023-02-28T05:44:27;10.27;;;3.60;;
77591;SDS011;66891;46.884;17.436;2023-02-28T05:46:54;10.45;;;3.35;;
77591;SDS011;66891;46.884;17.436;2023-02-28T05:49:21;10.57;;;3.63;;
77591;SDS011;66891;46.884;17.436;2023-02-28T05:51:48;11.18;;;3.65;;
77591;SDS011;66891;46.884;17.436;2023-02-28T05:54:16;11.05;;;3.50;;
77591;SDS011;66891;46.884;17.436;2023-02-28T05:56:43;10.75;;;2.97;;
77591;SDS011;66891;46.884;17.436;2023-02-28T05:59:12;10.88;;;3.90;;
77591;SDS011;66891;46.884;17.436;2023-02-28T06:01:40;10.52;;;3.58;;
77591;SDS011;66891;46.884;17.436;2023-02-28T06:04:08;12.00;;;3.63;;
77591;SDS011;66891;46.884;17.436;2023-02-28T06:06:50;12.88;;;4.10;;
77591;SDS011;66891;46.884;17.436;2023-02-28T06:09:19;11.52;;;3.55;;
77591;SDS011;66891;46.884;17.436;2023-02-28T06:11:47;12.10;;;3.30;;
77591;SDS011;66891;46.884;17.436;2023-02-28T06:14:14;11.43;;;3.72;;
77591;SDS011;66891;46.884;17.436;2023-02-28T06:16:42;12.35;;;3.80;;
77591;SDS011;66891;46.884;17.436;2023-02-28T06:19:10;10.80;;;3.70;;
77591;SDS011;66891;46.884;17.436;2023-02-28T06:21:37;12.73;;;3.97;;
77591;SDS011;66891;46.884;17.436;2023-02-28T06:24:05;12.05;;;3.67;;
77591;SDS011;66891;46.884;17.436;2023-02-28T06:26:34;12.77;;;3.80;;
77591;SDS011;66891;46.884;17.436;2023-02-28T06:29:01;12.40;;;3.40;;
77591;SDS011;66891;46.884;17.436;2023-02-28T06:31:28;12.13;;;3.67;;
77591;SDS011;66891;46.884;17.436;2023-02-28T06:33:56;13.15;;;4.10;;
77591;SDS011;66891;46.884;17.436;2023-02-28T06:36:23;12.90;;;3.42;;
77591;SDS011;66891;46.884;17.436;2023-02-28T06:38:50;12.23;;;4.50;;
77591;SDS011;66891;46.884;17.436;2023-02-28T06:41:22;12.50;;;4.15;;
77591;SDS011;66891;46.884;17.436;2023-02-28T06:43:50;11.90;;;4.18;;
77591;SDS011;66891;46.884;17.436;2023-02-28T06:46:18;12.93;;;4.07;;
77591;SDS011;66891;46.884;17.436;2023-02-28T06:48:45;13.30;;;4.40;;
77591;SDS011;66891;46.884;17.436;2023-02-28T06:51:13;12.73;;;4.03;;
77591;SDS011;66891;46.884;17.436;2023-02-28T06:53:44;12.82;;;4.22;;
77591;SDS011;66891;46.884;17.436;2023-02-28T06:56:12;16.33;;;4.97;;
77591;SDS011;66891;46.884;17.436;2023-02-28T06:58:39;14.13;;;4.57;;
77591;SDS011;66891;46.884;17.436;2023-02-28T07:01:08;14.88;;;5.40;;
77591;SDS011;66891;46.884;17.436;2023-02-28T07:03:36;15.02;;;5.70;;
77591;SDS011;66891;46.884;17.436;2023-02-28T07:06:05;16.13;;;5.78;;
77591;SDS011;66891;46.884;17.436;2023-02-28T07:08:33;14.15;;;5.03;;
77591;SDS011;66891;46.884;17.436;2023-02-28T07:11:00;12.82;;;5.07;;
77591;SDS011;66891;46.884;17.436;2023-02-28T07:13:27;12.68;;;4.55;;
77591;SDS011;66891;46.884;17.436;2023-02-28T07:15:55;14.32;;;5.55;;
77591;SDS011;66891;46.884;17.436;2023-02-28T07:18:24;18.63;;;5.53;;
77591;SDS011;66891;46.884;17.436;2023-02-28T07:20:51;46.47;;;15.65;;
77591;SDS011;66891;46.884;17.436;2023-02-28T07:23:19;19.25;;;6.22;;
77591;SDS011;66891;46.884;17.436;2023-02-28T07:25:46;14.70;;;5.28;;
77591;SDS011;66891;46.884;17.436;2023-02-28T07:28:14;11.63;;;4.30;;
77591;SDS011;66891;46.884;17.436;2023-02-28T07:30:41;15.87;;;4.83;;
77591;SDS011;66891;46.884;17.436;2023-02-28T07:33:08;13.68;;;4.60;;
77591;SDS011;66891;46.884;17.436;2023-02-28T07:35:37;14.50;;;5.50;;
77591;SDS011;66891;46.884;17.436;2023-02-28T07:38:04;17.63;;;6.47;;
77591;SDS011;66891;46.884;17.436;2023-02-28T07:40:31;11.95;;;4.47;;
77591;SDS011;66891;46.884;17.436;2023-02-28T07:42:58;14.20;;;5.70;;
77591;SDS011;66891;46.884;17.436;2023-02-28T07:45:25;12.93;;;4.30;;
77591;SDS011;66891;46.884;17.436;2023-02-28T07:47:53;12.70;;;4.50;;
77591;SDS011;66891;46.884;17.436;2023-02-28T07:50:20;13.30;;;5.55;;
77591;SDS011;66891;46.884;17.436;2023-02-28T07:52:48;15.05;;;5.32;;
77591;SDS011;66891;46.884;17.436;2023-02-28T07:55:15;14.63;;;4.13;;
77591;SDS011;66891;46.884;17.436;2023-02-28T08:00:40;12.25;;;4.13;;
77591;SDS011;66891;46.884;17.436;2023-02-28T08:03:12;12.57;;;4.30;;
77591;SDS011;66891;46.884;17.436;2023-02-28T08:05:40;15.35;;;4.57;;
77591;SDS011;66891;46.884;17.436;2023-02-28T08:08:11;14.45;;;4.25;;
77591;SDS011;66891;46.884;17.436;2023-02-28T08:10:38;13.03;;;4.37;;
77591;SDS011;66891;46.884;17.436;2023-02-28T08:13:11;13.52;;;4.53;;
77591;SDS011;66891;46.884;17.436;2023-02-28T08:15:43;12.57;;;4.20;;
77591;SDS011;66891;46.884;17.436;2023-02-28T08:24:17;13.50;;;4.40;;
77591;SDS011;66891;46.884;17.436;2023-02-28T08:26:44;11.95;;;3.95;;
77591;SDS011;66891;46.884;17.436;2023-02-28T08:29:11;13.32;;;4.45;;
77591;SDS011;66891;46.884;17.436;2023-02-28T08:31:38;12.68;;;4.32;;
77591;SDS011;66891;46.884;17.436;2023-02-28T08:34:06;11.88;;;4.18;;
77591;SDS011;66891;46.884;17.436;2023-02-28T08:36:33;15.23;;;4.73;;
77591;SDS011;66891;46.884;17.436;2023-02-28T08:39:01;13.13;;;4.13;;
77591;SDS011;66891;46.884;17.436;2023-02-28T08:41:29;12.40;;;4.03;;
77591;SDS011;66891;46.884;17.436;2023-02-28T08:43:56;11.95;;;4.03;;
77591;SDS011;66891;46.884;17.436;2023-02-28T08:46:24;11.93;;;4.32;;
77591;SDS011;66891;46.884;17.436;2023-02-28T08:48:51;11.10;;;3.90;;
77591;SDS011;66891;46.884;17.436;2023-02-28T08:51:19;11.85;;;4.10;;
77591;SDS011;66891;46.884;17.436;2023-02-28T08:53:48;12.55;;;4.07;;
77591;SDS011;66891;46.884;17.436;2023-02-28T08:56:16;10.70;;;3.65;;
77591;SDS011;66891;46.884;17.436;2023-02-28T08:58:49;12.48;;;4.30;;
77591;SDS011;66891;46.884;17.436;2023-02-28T09:01:17;10.20;;;3.83;;
77591;SDS011;66891;46.884;17.436;2023-02-28T09:03:45;13.43;;;3.85;;
77591;SDS011;66891;46.884;17.436;2023-02-28T09:06:13;9.80;;;3.50;;
77591;SDS011;66891;46.884;17.436;2023-02-28T09:08:42;10.63;;;3.20;;
77591;SDS011;66891;46.884;17.436;2023-02-28T09:11:10;11.30;;;3.97;;
77591;SDS011;66891;46.884;17.436;2023-02-28T09:13:37;13.20;;;4.00;;
77591;SDS011;66891;46.884;17.436;2023-02-28T09:16:07;11.52;;;4.20;;
77591;SDS011;66891;46.884;17.436;2023-02-28T09:18:34;12.80;;;4.38;;
77591;SDS011;66891;46.884;17.436;2023-02-28T09:21:03;13.45;;;3.97;;
77591;SDS011;66891;46.884;17.436;2023-02-28T09:23:30;10.52;;;3.55;;
77591;SDS011;66891;46.884;17.436;2023-02-28T09:25:58;10.70;;;3.40;;
77591;SDS011;66891;46.884;17.436;2023-02-28T09:28:25;13.05;;;3.90;;
77591;SDS011;66891;46.884;17.436;2023-02-28T09:30:53;11.73;;;3.65;;
77591;SDS011;66891;46.884;17.436;2023-02-28T09:33:22;13.13;;;3.85;;
77591;SDS011;66891;46.884;17.436;2023-02-28T09:35:50;11.70;;;4.22;;
77591;SDS011;66891;46.884;17.436;2023-02-28T09:38:17;12.90;;;4.50;;
77591;SDS011;66891;46.884;17.436;2023-02-28T09:41:13;12.43;;;4.47;;
77591;SDS011;66891;46.884;17.436;2023-02-28T09:44:37;14.20;;;3.90;;
77591;SDS011;66891;46.884;17.436;2023-02-28T09:47:07;13.90;;;4.50;;
77591;SDS011;66891;46.884;17.436;2023-02-28T09:49:43;13.95;;;4.00;;
77591;SDS011;66891;46.884;17.436;2023-02-28T09:52:14;12.13;;;4.13;;
77591;SDS011;66891;46.884;17.436;2023-02-28T09:54:48;11.15;;;4.32;;
77591;SDS011;66891;46.884;17.436;2023-02-28T09:57:19;11.60;;;4.15;;
77591;SDS011;66891;46.884;17.436;2023-02-28T09:59:59;13.48;;;4.30;;
77591;SDS011;66891;46.884;17.436;2023-02-28T10:02:40;12.38;;;3.78;;
77591;SDS011;66891;46.884;17.436;2023-02-28T10:05:12;13.63;;;4.17;;
77591;SDS011;66891;46.884;17.436;2023-02-28T10:07:59;14.27;;;4.50;;
77591;SDS011;66891;46.884;17.436;2023-02-28T10:10:35;14.40;;;4.55;;
77591;SDS011;66891;46.884;17.436;2023-02-28T10:13:06;16.00;;;6.10;;
77591;SDS011;66891;46.884;17.436;2023-02-28T10:15:37;12.48;;;4.88;;
77591;SDS011;66891;46.884;17.436;2023-02-28T10:18:06;13.77;;;4.97;;
77591;SDS011;66891;46.884;17.436;2023-02-28T10:20:40;13.57;;;4.75;;
77591;SDS011;66891;46.884;17.436;2023-02-28T10:23:09;14.10;;;5.72;;
77591;SDS011;66891;46.884;17.436;2023-02-28T10:25:38;12.23;;;4.57;;
77591;SDS011;66891;46.884;17.436;2023-02-28T10:28:09;14.68;;;5.05;;
77591;SDS011;66891;46.884;17.436;2023-02-28T10:30:37;12.43;;;5.10;;
77591;SDS011;66891;46.884;17.436;2023-02-28T10:33:08;13.07;;;4.47;;
77591;SDS011;66891;46.884;17.436;2023-02-28T10:35:44;13.27;;;4.80;;
77591;SDS011;66891;46.884;17.436;2023-02-28T10:38:15;15.30;;;4.97;;
77591;SDS011;66891;46.884;17.436;2023-02-28T10:40:46;14.73;;;5.35;;
77591;SDS011;66891;46.884;17.436;2023-02-28T10:43:20;16.53;;;5.67;;
77591;SDS011;66891;46.884;17.436;2023-02-28T10:45:56;13.50;;;5.00;;
77591;SDS011;66891;46.884;17.436;2023-02-28T10:48:32;13.65;;;5.07;;
77591;SDS011;66891;46.884;17.436;2023-02-28T10:51:02;13.65;;;4.72;;
77591;SDS011;66891;46.884;17.436;2023-02-28T10:53:35;13.43;;;4.78;;
77591;SDS011;66891;46.884;17.436;2023-02-28T10:56:23;13.10;;;5.33;;
77591;SDS011;66891;46.884;17.436;2023-02-28T10:58:52;11.00;;;4.47;;
77591;SDS011;66891;46.884;17.436;2023-02-28T11:01:21;15.23;;;5.05;;
77591;SDS011;66891;46.884;17.436;2023-02-28T11:03:48;12.60;;;4.55;;
77591;SDS011;66891;46.884;17.436;2023-02-28T11:06:18;12.65;;;4.50;;
77591;SDS011;66891;46.884;17.436;2023-02-28T11:08:47;12.73;;;4.57;;
77591;SDS011;66891;46.884;17.436;2023-02-28T11:11:14;12.18;;;4.50;;
77591;SDS011;66891;46.884;17.436;2023-02-28T11:13:43;12.68;;;4.82;;
77591;SDS011;66891;46.884;17.436;2023-02-28T11:16:11;11.50;;;4.47;;
77591;SDS011;66891;46.884;17.436;2023-02-28T11:18:40;12.85;;;5.05;;
77591;SDS011;66891;46.884;17.436;2023-02-28T11:21:08;11.87;;;4.30;;
77591;SDS011;66891;46.884;17.436;2023-02-28T11:23:39;10.73;;;4.15;;
77591;SDS011;66891;46.884;17.436;2023-02-28T11:26:07;9.52;;;3.85;;
77591;SDS011;66891;46.884;17.436;2023-02-28T11:28:38;10.38;;;4.03;;
77591;SDS011;66891;46.884;17.436;2023-02-28T11:31:14;12.18;;;4.20;;
77591;SDS011;66891;46.884;17.436;2023-02-28T11:33:46;11.13;;;4.43;;
77591;SDS011;66891;46.884;17.436;2023-02-28T11:36:47;10.77;;;4.40;;
77591;SDS011;66891;46.884;17.436;2023-02-28T11:39:26;11.88;;;4.28;;
77591;SDS011;66891;46.884;17.436;2023-02-28T11:42:07;15.70;;;5.05;;
77591;SDS011;66891;46.884;17.436;2023-02-28T11:44:41;12.43;;;4.57;;
77591;SDS011;66891;46.884;17.436;2023-02-28T11:47:11;12.13;;;4.87;;
77591;SDS011;66891;46.884;17.436;2023-02-28T11:49:43;10.95;;;4.65;;
77591;SDS011;66891;46.884;17.436;2023-02-28T11:52:16;11.68;;;4.15;;
77591;SDS011;66891;46.884;17.436;2023-02-28T11:55:00;10.77;;;4.20;;
77591;SDS011;66891;46.884;17.436;2023-02-28T12:00:39;11.07;;;4.40;;
77591;SDS011;66891;46.884;17.436;2023-02-28T12:03:11;10.98;;;4.20;;
77591;SDS011;66891;46.884;17.436;2023-02-28T12:05:44;11.60;;;4.22;;
77591;SDS011;66891;46.884;17.436;2023-02-28T12:08:18;12.00;;;4.72;;
77591;SDS011;66891;46.884;17.436;2023-02-28T12:10:56;11.77;;;4.95;;
77591;SDS011;66891;46.884;17.436;2023-02-28T12:13:26;12.03;;;4.90;;
77591;SDS011;66891;46.884;17.436;2023-02-28T12:16:08;13.07;;;4.82;;
77591;SDS011;66891;46.884;17.436;2023-02-28T12:18:45;13.43;;;5.13;;
77591;SDS011;66891;46.884;17.436;2023-02-28T12:21:18;12.15;;;4.90;;
77591;SDS011;66891;46.884;17.436;2023-02-28T12:23:52;15.00;;;5.82;;
77591;SDS011;66891;46.884;17.436;2023-02-28T12:26:27;12.13;;;5.20;;
77591;SDS011;66891;46.884;17.436;2023-02-28T12:28:57;12.55;;;5.18;;
77591;SDS011;66891;46.884;17.436;2023-02-28T12:31:29;11.38;;;4.90;;
77591;SDS011;66891;46.884;17.436;2023-02-28T12:33:59;14.20;;;5.57;;
77591;SDS011;66891;46.884;17.436;2023-02-28T12:36:28;14.73;;;5.75;;
77591;SDS011;66891;46.884;17.436;2023-02-28T12:38:56;14.53;;;5.73;;
77591;SDS011;66891;46.884;17.436;2023-02-28T12:41:29;12.68;;;5.00;;
77591;SDS011;66891;46.884;17.436;2023-02-28T12:44:01;12.25;;;4.70;;
77591;SDS011;66891;46.884;17.436;2023-02-28T12:46:30;14.85;;;5.47;;
77591;SDS011;66891;46.884;17.436;2023-02-28T12:49:00;13.88;;;5.25;;
77591;SDS011;66891;46.884;17.436;2023-02-28T12:51:28;17.97;;;5.53;;
77591;SDS011;66891;46.884;17.436;2023-02-28T12:54:02;11.73;;;5.05;;
77591;SDS011;66891;46.884;17.436;2023-02-28T12:56:38;10.95;;;5.03;;
77591;SDS011;66891;46.884;17.436;2023-02-28T12:59:11;11.77;;;5.10;;
77591;SDS011;66891;46.884;17.436;2023-02-28T13:01:47;13.57;;;5.05;;
77591;SDS011;66891;46.884;17.436;2023-02-28T13:04:27;12.83;;;5.10;;
77591;SDS011;66891;46.884;17.436;2023-02-28T13:06:59;14.82;;;5.88;;
77591;SDS011;66891;46.884;17.436;2023-02-28T13:09:31;13.57;;;5.07;;
77591;SDS011;66891;46.884;17.436;2023-02-28T13:12:00;13.68;;;4.90;;
77591;SDS011;66891;46.884;17.436;2023-02-28T13:14:28;12.43;;;4.60;;
77591;SDS011;66891;46.884;17.436;2023-02-28T13:16:58;12.27;;;4.90;;
77591;SDS011;66891;46.884;17.436;2023-02-28T13:19:27;14.95;;;5.60;;
77591;SDS011;66891;46.884;17.436;2023-02-28T13:21:55;15.30;;;5.65;;
77591;SDS011;66891;46.884;17.436;2023-02-28T13:24:37;13.75;;;5.38;;
77591;SDS011;66891;46.884;17.436;2023-02-28T13:30:00;15.20;;;6.77;;
77591;SDS011;66891;46.884;17.436;2023-02-28T13:32:33;14.55;;;5.75;;
77591;SDS011;66891;46.884;17.436;2023-02-28T13:35:14;14.20;;;5.85;;
77591;SDS011;66891;46.884;17.436;2023-02-28T13:37:42;14.38;;;6.50;;
77591;SDS011;66891;46.884;17.436;2023-02-28T13:40:29;13.25;;;5.82;;
77591;SDS011;66891;46.884;17.436;2023-02-28T13:42:57;13.80;;;5.67;;
77591;SDS011;66891;46.884;17.436;2023-02-28T13:45:26;14.48;;;5.95;;
77591;SDS011;66891;46.884;17.436;2023-02-28T13:47:55;13.90;;;5.80;;
77591;SDS011;66891;46.884;17.436;2023-02-28T13:50:24;14.73;;;6.25;;
77591;SDS011;66891;46.884;17.436;2023-02-28T13:55:42;15.03;;;6.23;;
77591;SDS011;66891;46.884;17.436;2023-02-28T13:58:19;15.27;;;6.22;;
77591;SDS011;66891;46.884;17.436;2023-02-28T14:00:58;14.55;;;5.97;;
77591;SDS011;66891;46.884;17.436;2023-02-28T14:03:36;17.13;;;7.15;;
77591;SDS011;66891;46.884;17.436;2023-02-28T14:06:08;14.80;;;6.22;;
77591;SDS011;66891;46.884;17.436;2023-02-28T14:08:36;14.23;;;6.20;;
77591;SDS011;66891;46.884;17.436;2023-02-28T14:11:04;17.48;;;6.53;;
77591;SDS011;66891;46.884;17.436;2023-02-28T14:13:39;16.17;;;7.13;;
77591;SDS011;66891;46.884;17.436;2023-02-28T14:16:13;19.15;;;7.07;;
77591;SDS011;66891;46.884;17.436;2023-02-28T14:18:41;13.35;;;5.60;;
77591;SDS011;66891;46.884;17.436;2023-02-28T14:21:14;12.67;;;5.43;;
77591;SDS011;66891;46.884;17.436;2023-02-28T14:23:46;13.43;;;6.00;;
77591;SDS011;66891;46.884;17.436;2023-02-28T14:26:20;13.60;;;5.97;;
77591;SDS011;66891;46.884;17.436;2023-02-28T14:28:57;15.38;;;6.70;;
77591;SDS011;66891;46.884;17.436;2023-02-28T14:31:32;16.08;;;6.88;;
77591;SDS011;66891;46.884;17.436;2023-02-28T14:34:10;17.33;;;7.83;;
77591;SDS011;66891;46.884;17.436;2023-02-28T14:36:41;15.65;;;6.68;;
77591;SDS011;66891;46.884;17.436;2023-02-28T14:39:11;16.30;;;7.35;;
77591;SDS011;66891;46.884;17.436;2023-02-28T14:41:41;14.35;;;6.03;;
77591;SDS011;66891;46.884;17.436;2023-02-28T14:44:15;15.32;;;6.07;;
77591;SDS011;66891;46.884;17.436;2023-02-28T14:46:44;18.87;;;6.47;;
77591;SDS011;66891;46.884;17.436;2023-02-28T14:49:13;13.68;;;6.20;;
77591;SDS011;66891;46.884;17.436;2023-02-28T14:51:42;13.65;;;5.60;;
77591;SDS011;66891;46.884;17.436;2023-02-28T14:54:12;15.77;;;6.90;;
77591;SDS011;66891;46.884;17.436;2023-02-28T14:56:40;15.80;;;6.70;;
77591;SDS011;66891;46.884;17.436;2023-02-28T14:59:21;14.57;;;6.60;;
77591;SDS011;66891;46.884;17.436;2023-02-28T15:01:53;14.35;;;5.90;;
77591;SDS011;66891;46.884;17.436;2023-02-28T15:04:34;15.95;;;6.88;;
77591;SDS011;66891;46.884;17.436;2023-02-28T15:07:08;16.77;;;6.55;;